Ismay, Montana
Current Conditions -  °F | °C
As of 4:51 PM on Wednesday 22 Oct 2014 (Local Time) from KBHK Reporting Station
Clear Clear  
Wind Chill: 60°   Ceiling: Unl
Heat Index: 60°   Visibility: 10mi
Dew Point: 30°   Wind: 10mph
Humidity: 32%   Direction: 280°W
Pressure: 29.93"   Gusts: 23mph
Location:  46.5°N, 104.79°W
Report Text: KBHK 222251Z AUTO 28009G20KT 10SM CLR 16/M01 A2993 RMK AO2 SLP132 T01561011
Loading
Personal Weather Stations






























Interactive Weather Map
Tropical Storm Tracking
New forecast layout! Learn more

10-Day Weather Forecast

Advertisements
Track Severe Weather on mobile